Pagina principale
METAR-TAF:

METAR-TAF

Aeroporti :

Aerodromo Hinterstoisser-Zeltweg

Zeltweg, Austria

latitudine: 47-12N, longitudine: 014-45E, altezza: 677 m

Osservazione

Il bollettino è stato emesso 13 minuti fa, alle 20:50 UTC
Vento 3 kt da ovest/nord-ovest
Temperature 16°C
Umidità 88%
Pressione 1018 hPa

METAR: LOXZ 162050Z 29003KT 20KM OVC150AC 16/14 Q1018

Ora: 23:03 (21:03 UTC)

Previsione

Il bollettino è stato emesso 9 ore e 48 minuti fa, alle 11:15 UTC
Previsione valida dal 16 alle 12 UTC al 16 alle 21 UTC
Vento 3 kt da direzioni variabili
Visibilità 10 km o più
Poco nuvoloso ad un'altezza di 5000 ft
Nubi sparse ad un'altezza di 20000 ft
Temporaneamente
dal 16 alle 12 UTC al 16 alle 16 UTC
Vento 7 kt da est/sud-est

TAF: LOXZ 161115Z 1612/1621 VRB03KT 9999 FEW050 SCT200 TEMPO 1612/1616 12007KT

Osservazioni e previsioni meteorologiche di più di 4000 aeroporti (messaggi METAR e TAF).

Le stazioni disponibili sono rappresentate dai dischi gialli e rossi sulla carta.

Puntare il mouse per vedere il nome della stazione.

Clicca sopra per visualizzare le osservazioni e previsioni meteorologiche.

Per cambiare la mappa : fare clic sui pulsanti verdi con una croce nera per ingrandire, il pulsante verde con un trattino per diminuire, o sulla freccia verde per le mappe adiacenti.


METAR-TAF: